Time;durP1;ratioP1;P1;durP2;ratioP2;P2;SDS_P1;SDS_P2;PMS_P1;PMS_P2;Temp;Humidity;BMP_temperature;BMP_pressure;BME280_temperature;BME280_humidity;BME280_pressure;Samples;Min_cycle;Max_cycle;Signal;HPM_P1;HPM_P2
2021/08/15 00:00:05;;;;;;;22.02;14.63;;;;;;;15.52;85.65;94972.84;1710722;82;21893;-54
2021/08/15 00:02:34;;;;;;;31.23;16.07;;;;;;;15.50;85.68;94980.23;1713752;82;20940;-56
2021/08/15 00:05:02;;;;;;;21.50;15.10;;;;;;;15.48;85.56;94974.41;1713675;82;21263;-56
2021/08/15 00:07:30;;;;;;;24.95;13.70;;;;;;;15.48;85.54;94979.17;1712910;82;20957;-56
2021/08/15 00:09:58;;;;;;;26.93;14.40;;;;;;;15.48;85.54;94977.17;1718871;81;20981;-56
2021/08/15 00:12:25;;;;;;;25.55;15.32;;;;;;;15.51;85.47;94977.61;1722878;81;21779;-56
2021/08/15 00:14:51;;;;;;;25.27;15.50;;;;;;;15.52;85.30;94979.14;1729663;82;21144;-55
2021/08/15 00:17:19;;;;;;;23.38;14.47;;;;;;;15.54;85.21;94969.73;1720747;81;21082;-56
2021/08/15 00:19:47;;;;;;;21.62;12.68;;;;;;;15.55;85.26;94969.87;1723673;82;21008;-57
2021/08/15 00:22:14;;;;;;;23.07;14.00;;;;;;;15.53;85.42;94966.81;1721995;82;21513;-56
2021/08/15 00:24:41;;;;;;;24.95;14.20;;;;;;;15.47;85.59;94966.55;1727735;81;21624;-57
2021/08/15 00:27:08;;;;;;;26.25;13.00;;;;;;;15.41;85.69;94963.68;1719143;81;21007;-56
2021/08/15 00:29:35;;;;;;;24.45;14.20;;;;;;;15.37;85.79;94965.84;1711896;82;21025;-55
2021/08/15 00:32:06;;;;;;;17.77;10.70;;;;;;;15.27;85.71;94964.95;1718101;81;21455;-56
2021/08/15 00:34:35;;;;;;;21.93;12.00;;;;;;;15.20;85.92;94964.69;1724193;82;21533;-54
2021/08/15 00:37:03;;;;;;;19.25;11.73;;;;;;;15.15;86.08;94965.34;1715176;82;21048;-56
2021/08/15 00:39:31;;;;;;;19.62;11.40;;;;;;;15.14;86.21;94963.81;1718811;82;21083;-55
2021/08/15 00:41:58;;;;;;;14.90;10.90;;;;;;;15.15;86.31;94970.88;1713905;82;21454;-57
2021/08/15 00:44:26;;;;;;;19.67;12.28;;;;;;;15.13;86.25;94977.52;1693818;82;21108;-56
2021/08/15 00:46:53;;;;;;;21.27;13.30;;;;;;;15.07;86.24;94983.56;1722977;81;21057;-56
2021/08/15 00:49:19;;;;;;;17.80;12.68;;;;;;;15.02;86.49;94969.58;1713375;82;21082;-57
2021/08/15 00:51:46;;;;;;;31.68;14.05;;;;;;;15.02;86.58;94974.48;1717392;82;21776;-56
2021/08/15 00:54:13;;;;;;;21.93;14.30;;;;;;;15.03;86.60;94966.95;1716895;82;21536;-57
2021/08/15 00:56:49;;;;;;;28.55;15.58;;;;;;;15.01;86.83;94970.82;1715786;82;21093;-58
2021/08/15 00:59:19;;;;;;;31.25;15.05;;;;;;;14.97;86.79;94966.83;1720827;82;20962;-56
2021/08/15 01:01:46;;;;;;;23.10;14.45;;;;;;;14.94;86.80;94962.23;1720060;82;21149;-56
2021/08/15 01:04:15;;;;;;;32.42;16.55;;;;;;;14.89;86.82;94960.72;1721002;82;21039;-57
2021/08/15 01:06:42;;;;;;;27.42;17.40;;;;;;;14.84;86.90;94956.58;1653691;86;21530;-56
2021/08/15 01:09:11;;;;;;;28.75;16.45;;;;;;;14.82;87.19;94954.89;1646580;86;21090;-55
2021/08/15 01:11:38;;;;;;;24.07;14.18;;;;;;;14.81;87.29;94957.52;1644357;85;20975;-56
2021/08/15 01:14:07;;;;;;;20.52;12.85;;;;;;;14.83;87.16;94955.67;1644971;86;20971;-57
2021/08/15 01:16:38;;;;;;;17.62;12.20;;;;;;;14.79;86.85;94950.30;1652026;86;21446;-57
2021/08/15 01:19:06;;;;;;;18.40;13.08;;;;;;;14.76;86.71;94952.63;1643777;86;20979;-56
2021/08/15 01:21:37;;;;;;;20.30;12.15;;;;;;;14.73;86.60;94954.95;1651426;86;21495;-56
2021/08/15 01:24:05;;;;;;;22.90;11.73;;;;;;;14.71;86.51;94957.42;1651569;87;21558;-56
2021/08/15 01:26:33;;;;;;;19.73;11.65;;;;;;;14.71;86.48;94958.81;1651543;87;22691;-56
2021/08/15 01:29:00;;;;;;;14.63;11.30;;;;;;;14.75;86.50;94957.23;1651681;87;21447;-56
2021/08/15 01:31:27;;;;;;;17.12;11.53;;;;;;;14.75;86.54;94958.02;1651769;87;21093;-56
2021/08/15 01:33:54;;;;;;;17.90;11.55;;;;;;;14.74;86.52;94946.79;1651556;87;21050;-56
2021/08/15 01:36:21;;;;;;;15.98;12.03;;;;;;;14.72;86.36;94950.65;1651555;87;21015;-56
2021/08/15 01:38:50;;;;;;;19.92;12.30;;;;;;;14.72;86.40;94948.48;1646765;87;22324;-56
2021/08/15 01:41:17;;;;;;;18.37;12.43;;;;;;;14.72;86.28;94946.50;1651316;84;21002;-56
2021/08/15 01:43:54;;;;;;;16.37;12.63;;;;;;;14.72;86.29;94952.63;1651341;87;20997;-56
2021/08/15 01:46:24;;;;;;;18.17;11.48;;;;;;;14.70;86.43;94950.35;1652964;85;21588;-55
2021/08/15 01:48:51;;;;;;;15.05;9.65;;;;;;;14.70;86.26;94946.80;1637931;86;21207;-55
2021/08/15 01:51:18;;;;;;;15.93;11.00;;;;;;;14.67;86.42;94949.88;1649828;86;21138;-55
2021/08/15 01:53:45;;;;;;;14.40;11.05;;;;;;;14.67;87.01;94950.52;1644642;86;21096;-56
2021/08/15 01:56:12;;;;;;;16.20;11.05;;;;;;;14.67;86.93;94952.65;1696906;83;21516;-56
2021/08/15 01:58:38;;;;;;;16.57;11.08;;;;;;;14.63;86.53;94945.13;1689009;83;21079;-56
2021/08/15 02:01:06;;;;;;;15.00;11.03;;;;;;;14.56;86.29;94951.02;1700614;83;20996;-56
2021/08/15 02:03:32;;;;;;;15.58;10.98;;;;;;;14.50;86.42;94942.42;1707210;83;21136;-55
2021/08/15 02:06:00;;;;;;;19.05;12.78;;;;;;;14.48;86.75;94949.80;1709309;83;21004;-56
2021/08/15 02:08:27;;;;;;;21.87;12.70;;;;;;;14.47;86.90;94954.44;1685904;83;20988;-57
2021/08/15 02:10:55;;;;;;;17.45;12.35;;;;;;;14.44;87.07;94950.59;1694598;82;20986;-56
2021/08/15 02:13:22;;;;;;;11.18;10.05;;;;;;;14.42;87.50;94947.37;1700333;83;21152;-56
2021/08/15 02:15:51;;;;;;;14.25;10.38;;;;;;;14.41;87.60;94952.16;1702812;83;21271;-56
2021/08/15 02:18:19;;;;;;;21.68;11.73;;;;;;;14.41;87.90;94952.77;1708838;83;20953;-57
2021/08/15 02:20:46;;;;;;;16.85;10.95;;;;;;;14.44;87.94;94943.67;1709882;83;21072;-56
2021/08/15 02:23:13;;;;;;;17.98;10.88;;;;;;;14.46;87.81;94950.89;1703475;82;21683;-56
2021/08/15 02:25:40;;;;;;;21.07;11.53;;;;;;;14.44;87.59;94950.59;1701139;83;21010;-56
2021/08/15 02:28:07;;;;;;;20.97;11.20;;;;;;;14.41;87.13;94948.61;1712897;83;22328;-55
2021/08/15 02:30:34;;;;;;;14.18;10.13;;;;;;;14.37;87.04;94960.47;1703204;83;20949;-55
2021/08/15 02:33:04;;;;;;;16.05;10.45;;;;;;;14.35;87.22;94954.64;1705987;83;21531;-55
2021/08/15 02:35:33;;;;;;;15.40;9.98;;;;;;;14.37;87.01;94954.30;1702644;83;21497;-55
2021/08/15 02:38:00;;;;;;;16.07;10.53;;;;;;;14.39;86.68;94960.77;1701139;84;20970;-56
2021/08/15 02:40:26;;;;;;;12.28;10.75;;;;;;;14.39;86.44;94953.22;1699445;83;21152;-56
2021/08/15 02:42:54;;;;;;;17.77;10.05;;;;;;;14.42;86.43;94948.77;1702255;84;20998;-55
2021/08/15 02:45:24;;;;;;;13.62;9.63;;;;;;;14.42;85.78;94948.77;1699525;84;21469;-57
2021/08/15 02:47:52;;;;;;;14.98;10.80;;;;;;;14.40;85.73;94947.83;1701568;83;20990;-56
2021/08/15 02:50:19;;;;;;;18.40;10.00;;;;;;;14.42;85.91;94945.39;1705357;83;21069;-57
2021/08/15 02:52:46;;;;;;;16.70;11.20;;;;;;;14.44;85.79;94950.59;1701776;83;21331;-56
2021/08/15 02:55:15;;;;;;;17.37;9.93;;;;;;;14.44;86.21;94952.61;1700981;84;21026;-56
2021/08/15 02:57:42;;;;;;;11.40;9.35;;;;;;;14.40;86.32;94947.08;1700933;83;21015;-56
2021/08/15 03:00:11;;;;;;;10.72;8.93;;;;;;;14.36;86.58;94952.02;1700885;83;21780;-57
2021/08/15 03:02:38;;;;;;;11.65;9.73;;;;;;;14.32;86.53;94950.05;1706113;83;20949;-57
2021/08/15 03:05:07;;;;;;;11.40;10.20;;;;;;;14.25;86.60;94951.73;1703942;81;21137;-57
2021/08/15 03:07:34;;;;;;;14.07;9.75;;;;;;;14.19;86.66;94943.28;1718265;82;21479;-56
2021/08/15 03:10:02;;;;;;;14.35;8.93;;;;;;;14.17;86.80;94947.14;1719466;82;21034;-56
2021/08/15 03:12:28;;;;;;;12.75;9.00;;;;;;;14.14;86.98;94950.06;1725157;82;21164;-56
2021/08/15 03:14:56;;;;;;;14.47;9.43;;;;;;;14.12;87.21;94948.34;1735046;82;21018;-56
2021/08/15 03:17:23;;;;;;;15.40;11.05;;;;;;;14.10;87.23;94948.83;1723659;82;21775;-57
2021/08/15 03:19:52;;;;;;;17.02;10.43;;;;;;;14.11;87.15;94951.74;1732474;82;20958;-55
2021/08/15 03:22:19;;;;;;;16.95;10.35;;;;;;;14.09;86.93;94948.67;1739873;82;20953;-55
2021/08/15 03:24:46;;;;;;;15.05;10.03;;;;;;;14.07;87.01;94948.37;1732946;81;20976;-55
2021/08/15 03:27:14;;;;;;;13.62;9.30;;;;;;;14.10;86.92;94949.43;1727922;81;21074;-55
2021/08/15 03:29:42;;;;;;;14.83;10.08;;;;;;;14.11;86.82;94955.11;1725709;81;21205;-56
2021/08/15 03:32:08;;;;;;;15.45;10.20;;;;;;;14.13;86.78;94954.03;1730490;83;20948;-56
2021/08/15 03:34:35;;;;;;;17.67;10.60;;;;;;;14.10;86.94;94955.74;1723857;81;21133;-56
2021/08/15 03:37:02;;;;;;;13.80;10.30;;;;;;;14.05;87.01;94955.59;1742324;81;21030;-56
2021/08/15 03:39:30;;;;;;;12.58;9.98;;;;;;;14.02;87.14;94959.30;1737350;81;21185;-56
2021/08/15 03:42:00;;;;;;;14.78;10.20;;;;;;;14.03;87.21;94956.05;1730785;81;21162;-56
2021/08/15 03:44:28;;;;;;;16.40;10.18;;;;;;;14.08;87.34;94957.43;1737860;81;20987;-55
2021/08/15 03:46:56;;;;;;;15.68;9.93;;;;;;;14.10;86.89;94957.13;1728009;82;21479;-56
2021/08/15 03:49:26;;;;;;;20.43;10.40;;;;;;;14.09;86.77;94950.06;1703175;82;21029;-56
2021/08/15 03:51:56;;;;;;;11.90;9.45;;;;;;;14.11;86.49;94957.88;1701625;83;21100;-55
2021/08/15 03:54:23;;;;;;;13.75;9.73;;;;;;;14.11;86.45;94949.58;1700833;83;21197;-57
2021/08/15 03:56:50;;;;;;;12.82;9.65;;;;;;;14.14;86.55;94945.91;1699935;83;20943;-56
2021/08/15 03:59:17;;;;;;;13.62;10.23;;;;;;;14.20;86.55;94948.97;1704779;83;21591;-56
2021/08/15 04:01:46;;;;;;;14.38;9.85;;;;;;;14.25;86.48;94951.73;1712423;83;21163;-57
2021/08/15 04:04:13;;;;;;;10.48;8.23;;;;;;;14.24;86.53;94950.98;1710240;83;21024;-56
2021/08/15 04:06:40;;;;;;;15.60;9.40;;;;;;;14.28;86.61;94954.95;1706329;83;21087;-54
2021/08/15 04:09:07;;;;;;;13.88;9.78;;;;;;;14.31;86.49;94954.02;1700463;83;21447;-56
2021/08/15 04:11:35;;;;;;;15.25;8.80;;;;;;;14.34;86.54;94958.64;1699725;82;20990;-56
2021/08/15 04:14:02;;;;;;;15.70;9.20;;;;;;;14.41;86.68;94950.78;1704313;83;21001;-56
2021/08/15 04:16:29;;;;;;;14.45;9.68;;;;;;;14.48;86.65;94949.80;1707134;82;21017;-57
2021/08/15 04:18:59;;;;;;;16.65;9.25;;;;;;;14.56;86.49;94941.33;1703237;83;20962;-57
2021/08/15 04:21:26;;;;;;;14.33;12.10;;;;;;;14.66;86.12;94947.59;1709756;83;20997;-56
2021/08/15 04:23:53;;;;;;;17.73;13.18;;;;;;;14.71;86.04;94939.42;1711689;83;21016;-57
2021/08/15 04:26:20;;;;;;;19.30;12.95;;;;;;;14.80;85.82;94947.67;1706753;83;21480;-57
2021/08/15 04:28:47;;;;;;;15.60;10.03;;;;;;;14.84;85.73;94948.27;1702671;83;21124;-55
2021/08/15 04:31:14;;;;;;;14.05;11.68;;;;;;;14.93;85.51;94952.98;1707129;81;21132;-56
2021/08/15 04:33:41;;;;;;;26.10;22.20;;;;;;;14.99;85.32;94951.88;1716239;83;21056;-57
2021/08/15 04:36:08;;;;;;;31.30;27.73;;;;;;;15.08;85.21;94944.92;1691700;83;20987;-56
2021/08/15 04:38:36;;;;;;;42.03;32.58;;;;;;;15.16;84.86;94946.09;1686664;83;21425;-56
2021/08/15 04:41:03;;;;;;;43.63;37.23;;;;;;;15.25;84.75;94941.11;1708734;83;21138;-57
2021/08/15 04:43:32;;;;;;;36.00;31.75;;;;;;;15.33;84.55;94947.23;1711273;83;21132;-57
2021/08/15 04:46:02;;;;;;;36.75;29.05;;;;;;;15.42;84.53;94946.41;1707582;83;21433;-57
2021/08/15 04:48:29;;;;;;;38.05;30.48;;;;;;;15.53;84.40;94949.42;1705051;83;20980;-56
2021/08/15 04:50:58;;;;;;;25.17;20.15;;;;;;;15.63;84.38;94944.71;1708051;83;21020;-56
2021/08/15 04:53:24;;;;;;;29.82;22.22;;;;;;;15.75;84.09;94943.67;1710230;83;21068;-57
2021/08/15 04:55:51;;;;;;;26.48;17.30;;;;;;;15.75;83.84;94933.95;1684526;83;21139;-57
2021/08/15 04:58:17;;;;;;;20.15;12.70;;;;;;;15.77;83.81;94946.73;1711414;83;21555;-57
2021/08/15 05:00:44;;;;;;;13.90;11.20;;;;;;;15.80;83.86;94941.64;1714552;83;21440;-57
2021/08/15 05:03:18;;;;;;;18.37;14.68;;;;;;;15.87;83.56;94939.87;1706207;83;21574;-57
2021/08/15 05:05:45;;;;;;;18.27;14.20;;;;;;;15.93;83.01;94946.92;1710359;83;21095;-57
2021/08/15 05:08:11;;;;;;;18.52;11.73;;;;;;;15.98;82.50;94940.09;1695112;83;21165;-56
2021/08/15 05:10:42;;;;;;;16.25;12.50;;;;;;;16.07;82.08;94943.40;1705087;81;20994;-56
2021/08/15 05:13:11;;;;;;;15.32;10.88;;;;;;;16.10;81.61;94946.60;1713754;82;21007;-55
2021/08/15 05:15:39;;;;;;;16.07;10.15;;;;;;;16.16;81.05;94945.46;1727974;82;21018;-55
2021/08/15 05:18:09;;;;;;;14.83;10.48;;;;;;;16.21;80.58;94942.62;1721810;82;20974;-58
2021/08/15 05:20:36;;;;;;;20.62;11.20;;;;;;;16.24;80.21;94943.08;1734403;81;21115;-58
2021/08/15 05:23:04;;;;;;;13.40;10.88;;;;;;;16.29;79.97;94939.77;1721297;82;21482;-57
2021/08/15 05:25:32;;;;;;;12.78;9.35;;;;;;;16.36;79.84;94949.11;1722059;81;21269;-57
2021/08/15 05:27:58;;;;;;;13.35;9.98;;;;;;;16.44;79.75;94948.11;1723420;82;21077;-57
2021/08/15 05:30:26;;;;;;;14.98;10.35;;;;;;;16.53;79.68;94945.25;1728796;82;21088;-57
2021/08/15 05:32:54;;;;;;;13.22;10.15;;;;;;;16.61;79.49;94940.20;1723605;82;20984;-56
2021/08/15 05:35:23;;;;;;;14.80;10.78;;;;;;;16.71;79.32;94941.61;1713440;81;20948;-58
2021/08/15 05:37:50;;;;;;;14.20;10.25;;;;;;;16.82;78.76;94947.35;1718308;82;21053;-58
2021/08/15 05:40:17;;;;;;;16.07;9.85;;;;;;;16.88;78.38;94941.25;1721767;82;21001;-58
2021/08/15 05:42:44;;;;;;;19.57;10.25;;;;;;;16.96;78.21;94938.83;1713223;82;21006;-57
2021/08/15 05:45:12;;;;;;;14.47;9.40;;;;;;;17.05;77.77;94938.09;1710617;82;21157;-57
2021/08/15 05:47:38;;;;;;;12.37;9.68;;;;;;;17.15;77.22;94935.95;1723446;81;21065;-56
2021/08/15 05:50:09;;;;;;;10.45;8.20;;;;;;;17.24;76.85;94937.97;1716714;82;20998;-58
2021/08/15 05:52:36;;;;;;;14.63;9.85;;;;;;;17.33;76.22;94935.69;1694545;82;21600;-57
2021/08/15 05:55:05;;;;;;;11.33;8.75;;;;;;;17.37;75.77;94924.53;1712288;82;21604;-56
2021/08/15 05:57:32;;;;;;;15.28;9.23;;;;;;;17.45;75.35;94929.05;1720973;82;21347;-57
2021/08/15 05:59:59;;;;;;;14.13;12.18;;;;;;;17.54;74.95;94926.11;1721540;82;20991;-58
2021/08/15 06:02:27;;;;;;;11.12;8.70;;;;;;;17.66;74.74;94929.18;1719926;82;21009;-57
2021/08/15 06:04:53;;;;;;;11.83;7.62;;;;;;;17.77;73.81;94925.11;1713175;82;21441;-57
2021/08/15 06:07:21;;;;;;;9.85;7.20;;;;;;;17.86;73.93;94929.91;1722069;82;20946;-57
2021/08/15 06:09:47;;;;;;;14.00;8.30;;;;;;;17.96;73.54;94927.73;1722637;82;21815;-56
2021/08/15 06:12:16;;;;;;;24.05;9.00;;;;;;;18.05;73.35;94917.84;1691717;83;20962;-57
2021/08/15 06:14:43;;;;;;;13.20;7.90;;;;;;;18.16;73.10;94915.18;1689136;83;21051;-56
2021/08/15 06:17:11;;;;;;;17.27;8.65;;;;;;;18.23;72.75;94919.66;1689375;83;21109;-57
2021/08/15 06:19:39;;;;;;;13.93;8.95;;;;;;;18.30;72.42;94913.05;1702569;83;21049;-56
2021/08/15 06:22:09;;;;;;;11.88;8.58;;;;;;;18.40;72.15;94917.20;1689064;83;21153;-57
2021/08/15 06:24:35;;;;;;;15.50;8.73;;;;;;;18.50;71.91;94912.97;1695109;83;20988;-57
2021/08/15 06:27:04;;;;;;;20.37;9.05;;;;;;;18.62;71.57;94911.06;1697946;83;21059;-57
2021/08/15 06:29:30;;;;;;;20.02;13.85;;;;;;;18.74;71.60;94907.08;1704550;83;21424;-57
2021/08/15 06:31:57;;;;;;;12.10;9.85;;;;;;;18.90;71.12;94907.83;1706001;83;21005;-57
2021/08/15 06:34:24;;;;;;;19.10;8.83;;;;;;;19.02;70.35;94905.25;1700072;83;21143;-58
2021/08/15 06:36:52;;;;;;;16.27;8.80;;;;;;;19.11;69.82;94903.03;1688410;83;21013;-59
2021/08/15 06:39:19;;;;;;;15.55;8.28;;;;;;;19.17;69.36;94903.84;1704657;82;21418;-57
2021/08/15 06:41:46;;;;;;;15.20;8.65;;;;;;;19.25;69.33;94901.36;1731085;82;21261;-58
2021/08/15 06:44:14;;;;;;;12.35;8.00;;;;;;;19.33;69.16;94901.78;1733651;81;20935;-56
2021/08/15 06:46:42;;;;;;;15.25;9.90;;;;;;;19.46;68.66;94896.53;1723500;82;21565;-57
2021/08/15 06:49:08;;;;;;;13.10;8.60;;;;;;;19.58;68.07;94891.75;1732604;82;20978;-57
2021/08/15 06:51:37;;;;;;;12.28;7.62;;;;;;;19.69;67.35;94895.34;1736205;82;21017;-57
2021/08/15 06:54:03;;;;;;;11.38;7.87;;;;;;;19.78;66.94;94893.70;1725097;82;21052;-58
2021/08/15 06:56:32;;;;;;;10.45;7.72;;;;;;;19.85;66.83;94889.05;1720030;81;21085;-58
2021/08/15 06:58:59;;;;;;;15.18;7.85;;;;;;;19.96;66.43;94892.50;1720043;81;21322;-57
2021/08/15 07:01:26;;;;;;;11.22;7.55;;;;;;;20.06;66.29;94889.00;1735748;82;21057;-58
2021/08/15 07:03:53;;;;;;;12.18;7.30;;;;;;;20.15;66.06;94888.75;1744733;81;21006;-57
2021/08/15 07:06:19;;;;;;;11.05;7.67;;;;;;;20.25;66.26;94885.23;1726108;82;21062;-60
2021/08/15 07:08:47;;;;;;;13.55;8.48;;;;;;;20.40;65.25;94886.38;1723771;82;21490;-57
2021/08/15 07:11:13;;;;;;;18.23;7.62;;;;;;;20.52;64.51;94888.67;1719112;82;21130;-57
2021/08/15 07:13:40;;;;;;;13.40;7.60;;;;;;;20.62;63.89;94879.39;1693565;83;21449;-58
2021/08/15 07:16:09;;;;;;;14.98;8.05;;;;;;;20.75;63.29;94879.65;1699257;83;20955;-57
2021/08/15 07:18:37;;;;;;;17.12;6.95;;;;;;;20.88;63.40;94877.10;1705783;83;20976;-57
2021/08/15 07:21:04;;;;;;;11.78;6.53;;;;;;;21.03;63.00;94877.59;1710282;83;21038;-59
2021/08/15 07:23:31;;;;;;;11.45;7.05;;;;;;;21.16;62.04;94871.61;1705916;81;21873;-58
2021/08/15 07:25:58;;;;;;;16.32;9.48;;;;;;;21.31;61.64;94879.05;1700489;83;21488;-57
2021/08/15 07:28:25;;;;;;;13.68;7.75;;;;;;;21.46;61.74;94871.77;1703531;83;21045;-56
2021/08/15 07:30:52;;;;;;;12.53;8.08;;;;;;;21.60;60.95;94877.67;1703639;83;21037;-58
2021/08/15 07:33:19;;;;;;;9.43;7.40;;;;;;;21.74;60.56;94872.43;1700456;83;21092;-57
2021/08/15 07:35:46;;;;;;;10.55;7.45;;;;;;;21.88;60.95;94864.34;1704564;83;21136;-57
2021/08/15 07:38:13;;;;;;;11.08;7.60;;;;;;;22.07;61.20;94867.43;1713106;83;21075;-56
2021/08/15 07:40:40;;;;;;;7.55;6.83;;;;;;;22.27;60.60;94867.79;1710529;83;21041;-57
2021/08/15 07:43:06;;;;;;;7.95;6.20;;;;;;;22.45;59.30;94859.42;1711274;83;20977;-59
2021/08/15 07:45:35;;;;;;;9.10;7.80;;;;;;;22.59;58.61;94857.64;1708202;83;21022;-56
2021/08/15 07:48:02;;;;;;;9.70;6.67;;;;;;;22.74;58.45;94855.22;1702556;83;21548;-57
2021/08/15 07:50:36;;;;;;;8.25;6.30;;;;;;;22.89;57.48;94847.19;1703726;83;20961;-58
2021/08/15 07:53:19;;;;;;;7.83;6.53;;;;;;;23.01;57.37;94841.56;1712964;83;20968;-58
2021/08/15 07:55:47;;;;;;;8.90;6.25;;;;;;;23.16;57.23;94843.34;1714498;82;20988;-58
2021/08/15 07:58:13;;;;;;;7.37;6.67;;;;;;;23.31;56.62;94838.09;1714893;82;21127;-58
2021/08/15 08:00:43;;;;;;;8.50;6.10;;;;;;;23.44;56.44;94842.41;1708825;83;21137;-58
2021/08/15 08:03:11;;;;;;;12.70;6.87;;;;;;;23.56;56.45;94842.38;1703865;83;21096;-58
2021/08/15 08:05:38;;;;;;;8.35;6.80;;;;;;;23.72;56.91;94833.64;1719456;82;21026;-57
2021/08/15 08:08:06;;;;;;;9.15;6.72;;;;;;;23.84;56.44;94836.43;1729546;81;21123;-56
2021/08/15 08:10:34;;;;;;;6.58;5.97;;;;;;;23.97;56.08;94833.05;1716421;81;20990;-58
2021/08/15 08:13:01;;;;;;;7.62;6.87;;;;;;;24.10;55.32;94833.13;1697391;83;21940;-57
2021/08/15 08:15:30;;;;;;;10.72;6.53;;;;;;;24.22;54.84;94821.84;1694576;83;21056;-58
2021/08/15 08:17:57;;;;;;;9.88;6.70;;;;;;;24.33;54.79;94825.87;1704204;83;20970;-56
2021/08/15 08:20:24;;;;;;;7.33;6.45;;;;;;;24.47;54.60;94816.19;1698922;83;21489;-57
2021/08/15 08:22:51;;;;;;;10.58;7.00;;;;;;;24.62;54.06;94820.71;1692710;83;20965;-57
2021/08/15 08:25:19;;;;;;;10.05;6.72;;;;;;;24.73;53.52;94819.88;1693723;83;21154;-57
2021/08/15 08:27:46;;;;;;;7.45;6.75;;;;;;;24.87;53.63;94815.02;1700167;83;21159;-57
2021/08/15 08:30:14;;;;;;;26.95;20.23;;;;;;;25.02;53.43;94805.41;1699671;83;21120;-57
2021/08/15 08:32:41;;;;;;;11.90;7.45;;;;;;;25.16;53.03;94802.73;1706649;83;20979;-58
2021/08/15 08:35:09;;;;;;;7.90;6.00;;;;;;;25.31;53.49;94814.25;1696189;83;20994;-58
2021/08/15 08:37:37;;;;;;;14.40;5.97;;;;;;;25.47;52.75;94802.64;1669465;85;21158;-57
2021/08/15 08:40:06;;;;;;;10.03;6.25;;;;;;;25.61;51.94;94803.37;1665760;85;21027;-58
2021/08/15 08:42:33;;;;;;;17.07;6.10;;;;;;;25.74;51.40;94805.55;1647751;85;21600;-57
2021/08/15 08:45:01;;;;;;;7.20;6.05;;;;;;;25.87;51.18;94799.89;1663081;85;21022;-60
2021/08/15 08:47:28;;;;;;;8.35;6.00;;;;;;;26.01;50.63;94800.75;1713911;82;20953;-59
2021/08/15 08:49:56;;;;;;;8.25;6.62;;;;;;;26.11;50.14;94790.50;1682553;83;21150;-58
2021/08/15 08:52:30;;;;;;;8.03;5.55;;;;;;;26.21;49.29;94785.92;1671663;84;21043;-62
2021/08/15 08:55:01;;;;;;;6.78;5.50;;;;;;;26.31;49.22;94792.59;1687904;83;20970;-60
2021/08/15 08:57:28;;;;;;;11.68;6.03;;;;;;;26.40;48.40;94787.13;1693269;83;21078;-57
2021/08/15 08:59:56;;;;;;;10.60;5.95;;;;;;;26.50;47.99;94788.95;1698026;83;21085;-58
2021/08/15 09:02:23;;;;;;;7.85;5.47;;;;;;;26.63;47.76;94771.22;1695945;83;21811;-59
2021/08/15 09:04:50;;;;;;;12.55;6.58;;;;;;;26.78;47.75;94774.14;1669904;84;21011;-58
2021/08/15 09:07:20;;;;;;;7.22;6.08;;;;;;;26.92;47.68;94774.94;1714135;82;21180;-59
2021/08/15 09:09:58;;;;;;;10.05;5.60;;;;;;;27.09;47.99;94774.48;1739226;81;21077;-57
2021/08/15 09:12:44;;;;;;;8.08;5.65;;;;;;;27.23;48.27;94766.05;1717062;81;21030;-59
2021/08/15 09:15:18;;;;;;;6.95;5.62;;;;;;;27.37;47.00;94761.13;1718773;82;21138;-59
2021/08/15 09:17:45;;;;;;;7.30;5.40;;;;;;;27.52;47.09;94759.80;1718460;82;21221;-58
2021/08/15 09:20:22;;;;;;;14.30;6.92;;;;;;;27.67;47.14;94755.64;1741391;81;21069;-58
2021/08/15 09:22:49;;;;;;;8.63;6.80;;;;;;;27.84;46.73;94753.75;1720693;82;21569;-58
2021/08/15 09:25:23;;;;;;;9.15;6.87;;;;;;;28.01;46.79;94754.09;1728188;81;21037;-57
2021/08/15 09:27:55;;;;;;;8.83;5.65;;;;;;;28.15;46.27;94742.73;1719923;82;21114;-58
2021/08/15 09:30:31;;;;;;;8.68;5.50;;;;;;;28.31;45.46;94743.54;1700877;82;21097;-60
2021/08/15 09:33:14;;;;;;;7.85;6.08;;;;;;;28.43;44.88;94741.87;1708884;83;20973;-57
2021/08/15 09:35:42;;;;;;;12.73;6.78;;;;;;;28.52;43.96;94732.16;1708834;83;21113;-56
2021/08/15 09:38:15;;;;;;;8.95;5.78;;;;;;;28.64;44.33;94731.12;1703860;82;20959;-57
2021/08/15 09:40:49;;;;;;;9.03;6.03;;;;;;;28.76;44.21;94729.44;1698693;83;21288;-58
2021/08/15 09:43:25;;;;;;;7.83;5.47;;;;;;;28.92;44.72;94730.97;1712823;83;20970;-58
2021/08/15 09:45:59;;;;;;;7.85;5.60;;;;;;;29.08;44.78;94723.29;1707168;83;21564;-60
2021/08/15 09:48:36;;;;;;;7.70;5.25;;;;;;;29.22;44.49;94726.02;1705930;83;20985;-57
2021/08/15 09:51:22;;;;;;;8.88;6.00;;;;;;;29.38;43.56;94721.05;1712386;83;21524;-58
2021/08/15 09:53:58;;;;;;;9.40;5.75;;;;;;;29.47;41.65;94720.50;1710285;83;21061;-58
2021/08/15 09:56:39;;;;;;;8.85;5.45;;;;;;;29.51;42.07;94717.34;1703184;83;21469;-58
2021/08/15 09:59:20;;;;;;;7.50;5.40;;;;;;;29.63;41.60;94719.09;1706933;83;21009;-58
2021/08/15 10:01:53;;;;;;;8.20;5.30;;;;;;;29.72;40.56;94721.34;1711492;82;21131;-58
2021/08/15 10:04:24;;;;;;;7.58;5.20;;;;;;;29.76;39.81;94717.45;1705940;83;21096;-59
2021/08/15 10:06:54;;;;;;;6.42;4.83;;;;;;;29.82;39.69;94709.47;1706830;83;21003;-58
2021/08/15 10:09:22;;;;;;;6.33;5.30;;;;;;;30.00;39.42;94721.13;1702035;83;21069;-58
2021/08/15 10:11:52;;;;;;;12.05;6.00;;;;;;;30.13;39.33;94713.78;1708174;81;20985;-60
2021/08/15 10:14:19;;;;;;;10.00;5.28;;;;;;;30.35;39.58;94705.78;1693584;84;21028;-59
2021/08/15 10:17:00;;;;;;;8.40;5.95;;;;;;;30.70;38.83;94700.35;1709873;83;21452;-58
2021/08/15 10:19:55;;;;;;;8.15;5.55;;;;;;;30.95;37.77;94696.06;1709199;83;21396;-59
2021/08/15 10:22:29;;;;;;;8.90;5.60;;;;;;;31.15;37.47;94702.83;1694525;83;21016;-57
2021/08/15 10:24:59;;;;;;;5.15;4.62;;;;;;;31.37;37.44;94692.53;1699180;83;21060;-58
2021/08/15 10:27:45;;;;;;;6.33;5.72;;;;;;;31.64;36.92;94692.70;1697801;83;21064;-58
2021/08/15 10:30:24;;;;;;;6.65;5.20;;;;;;;31.84;36.57;94680.17;1704439;83;20974;-58
2021/08/15 10:33:05;;;;;;;11.97;5.95;;;;;;;32.00;36.56;94678.59;1690730;83;21330;-59
2021/08/15 10:35:36;;;;;;;8.78;5.67;;;;;;;32.26;36.08;94676.47;1697483;83;21583;-61
2021/08/15 10:38:17;;;;;;;6.77;5.47;;;;;;;32.49;35.40;94672.60;1667603;83;21081;-58
2021/08/15 10:40:48;;;;;;;11.75;5.40;;;;;;;32.90;34.71;94673.76;1683614;83;21519;-58
2021/08/15 10:43:31;;;;;;;9.53;5.00;;;;;;;32.90;34.71;94673.76;1683197;83;21080;-58
2021/08/15 10:46:22;;;;;;;7.78;5.92;;;;;;;32.86;34.38;94669.84;1709607;83;21161;-58
2021/08/15 10:49:03;;;;;;;7.20;5.17;;;;;;;32.61;34.42;94662.89;1690277;83;21123;-58
2021/08/15 10:51:48;;;;;;;5.75;5.05;;;;;;;32.84;34.35;94666.83;1706203;83;21028;-59
2021/08/15 10:54:42;;;;;;;11.90;6.08;;;;;;;33.20;34.12;94665.36;1693328;82;21068;-59
2021/08/15 10:57:09;;;;;;;10.80;6.17;;;;;;;33.31;34.16;94660.51;1705315;83;20974;-57
2021/08/15 10:59:42;;;;;;;8.40;5.10;;;;;;;33.85;33.04;94659.61;1702711;83;21106;-58
2021/08/15 11:02:14;;;;;;;12.68;5.45;;;;;;;34.32;32.82;94655.25;1712315;83;20975;-59
2021/08/15 11:04:56;;;;;;;6.65;5.17;;;;;;;34.91;32.11;94649.45;1712520;83;21019;-58
2021/08/15 11:07:38;;;;;;;9.13;4.95;;;;;;;34.95;31.67;94652.61;1710381;83;21019;-57
2021/08/15 11:10:12;;;;;;;5.90;5.30;;;;;;;34.92;31.22;94653.80;1711196;82;21061;-58
2021/08/15 11:13:16;;;;;;;10.63;5.25;;;;;;;34.83;31.09;94652.42;1709171;83;21107;-58
2021/08/15 11:15:44;;;;;;;9.83;5.12;;;;;;;34.94;31.52;94643.95;1701595;83;21089;-58
2021/08/15 11:18:15;;;;;;;6.33;4.30;;;;;;;35.34;31.11;94645.30;1706735;83;21553;-60
2021/08/15 11:20:47;;;;;;;8.33;4.72;;;;;;;35.32;30.50;94648.03;1703616;83;21078;-59
2021/08/15 11:23:26;;;;;;;8.33;4.70;;;;;;;35.42;30.34;94641.53;1706426;83;21013;-58
2021/08/15 11:25:54;;;;;;;9.23;5.53;;;;;;;35.63;30.64;94635.81;1707539;83;21174;-63
2021/08/15 11:28:24;;;;;;;5.95;4.60;;;;;;;35.89;29.98;94646.81;1709178;83;20997;-57
2021/08/15 11:30:55;;;;;;;5.00;4.20;;;;;;;36.19;29.63;94640.95;1705025;83;21054;-59
2021/08/15 11:33:23;;;;;;;5.40;4.45;;;;;;;36.51;28.90;94640.90;1709869;83;21500;-58